createdAt,value
2023-10-09T00:00:36.920Z,99414.63
2023-10-09T00:03:44.799Z,99428.09
2023-10-09T00:06:47.960Z,99430.81
2023-10-09T00:09:52.127Z,99423.53
2023-10-09T00:12:54.725Z,99420.91
2023-10-09T00:16:02.918Z,99412.88
2023-10-09T00:19:20.897Z,99412.88
2023-10-09T00:22:31.121Z,99414.63
2023-10-09T00:25:37.451Z,99412.78
2023-10-09T00:28:44.828Z,99408.16
2023-10-09T00:31:51.381Z,99416.06
2023-10-09T00:34:59.459Z,99414.19
2023-10-09T00:38:08.320Z,99396.25
2023-10-09T00:41:12.004Z,99394.31
2023-10-09T00:44:15.495Z,99397.84
2023-10-09T00:47:22.045Z,99391.53
2023-10-09T00:50:25.196Z,99401.25
2023-10-09T00:53:34.608Z,99403.88
2023-10-09T00:56:44.343Z,99398.53
2023-10-09T00:59:52.141Z,99403.78
2023-10-09T01:03:11.832Z,99398.41
2023-10-09T01:06:15.003Z,99393.03
2023-10-09T01:09:24.406Z,99391.34
2023-10-09T01:12:30.180Z,99395.81
2023-10-09T01:15:46.092Z,99401.19
2023-10-09T01:18:54.394Z,99386.97
2023-10-09T01:22:03.896Z,99401.22
2023-10-09T01:25:07.746Z,99399.50
2023-10-09T01:28:10.465Z,99404.84
2023-10-09T01:31:13.903Z,99416.44
2023-10-09T01:34:16.988Z,99416.31
2023-10-09T01:37:24.357Z,99412.81
2023-10-09T01:40:36.632Z,99403.94
2023-10-09T01:43:39.994Z,99398.47
2023-10-09T01:46:44.238Z,99403.94
2023-10-09T01:49:50.660Z,99395.81
2023-10-09T01:52:53.571Z,99396.66
2023-10-09T01:55:56.917Z,99399.34
2023-10-09T01:59:06.825Z,99407.56
2023-10-09T02:02:27.189Z,99395.91
2023-10-09T02:05:34.821Z,99403.94
2023-10-09T02:08:37.781Z,99308.41
2023-10-09T02:11:42.410Z,99397.63
2023-10-09T02:14:45.337Z,99394.06
2023-10-09T02:18:02.067Z,99390.75
2023-10-09T02:21:07.659Z,99397.06
2023-10-09T02:24:10.844Z,99395.50
2023-10-09T02:27:14.191Z,99400.19
2023-10-09T02:30:18.701Z,99405.59
2023-10-09T02:33:29.122Z,99406.69
2023-10-09T02:36:32.333Z,99411.06
2023-10-09T02:39:44.617Z,99388.94
2023-10-09T02:42:47.681Z,99383.72
2023-10-09T02:45:52.754Z,99362.28
2023-10-09T02:48:59.296Z,99362.19
2023-10-09T02:52:07.896Z,99357.66
2023-10-09T02:55:14.761Z,99347.88
2023-10-09T02:58:22.235Z,99354.94
2023-10-09T03:01:25.132Z,99343.41
2023-10-09T03:04:32.262Z,99344.38
2023-10-09T03:07:35.506Z,99328.28
2023-10-09T03:10:39.968Z,99330.84
2023-10-09T03:13:44.825Z,99335.34
2023-10-09T03:16:50.186Z,99353.28
2023-10-09T03:19:53.509Z,99341.47
2023-10-09T03:22:57.042Z,99344.22
2023-10-09T03:26:15.033Z,99352.28
2023-10-09T03:29:26.279Z,99341.47
2023-10-09T03:32:29.261Z,99340.50
2023-10-09T03:35:35.258Z,99343.09
2023-10-09T03:38:39.530Z,99344.84
2023-10-09T03:41:43.237Z,99324.63
2023-10-09T03:44:53.323Z,99359.06
2023-10-09T03:48:06.796Z,99352.75
2023-10-09T03:51:10.296Z,99367.84
2023-10-09T03:54:15.188Z,99367.78
2023-10-09T03:57:21.320Z,99368.50
2023-10-09T04:00:28.952Z,99351.44
2023-10-09T04:03:32.104Z,99344.31
2023-10-09T04:06:36.559Z,99342.50
2023-10-09T04:09:45.687Z,99352.22
2023-10-09T04:12:50.631Z,99337.03
2023-10-09T04:15:54.837Z,99327.12
2023-10-09T04:19:07.005Z,99325.16
2023-10-09T04:22:26.375Z,99327.75
2023-10-09T04:25:43.381Z,99337.63
2023-10-09T04:28:52.480Z,99336.84
2023-10-09T04:32:01.498Z,99334.06
2023-10-09T04:35:25.758Z,99321.56
2023-10-09T04:38:29.345Z,99310.09
2023-10-09T04:41:44.421Z,99321.66
2023-10-09T04:45:05.753Z,99314.59
2023-10-09T04:48:09.230Z,99335.66
2023-10-09T04:51:30.946Z,99334.69
2023-10-09T04:55:02.940Z,99331.13
2023-10-09T04:58:08.476Z,99322.13
2023-10-09T05:01:15.787Z,99311.38
2023-10-09T05:04:36.553Z,99305.03
2023-10-09T05:07:55.798Z,99309.41
2023-10-09T05:11:02.088Z,99306.72
2023-10-09T05:14:14.511Z,99314.66
2023-10-09T05:17:17.443Z,99315.53
2023-10-09T05:20:29.696Z,99319.47
2023-10-09T05:23:45.508Z,99313.75
2023-10-09T05:26:50.394Z,99310.31
2023-10-09T05:30:14.187Z,99296.34
2023-10-09T05:33:29.549Z,99295.69
2023-10-09T05:36:33.220Z,99304.81
2023-10-09T05:39:42.846Z,99321.81
2023-10-09T05:42:46.864Z,99320.00
2023-10-09T05:46:08.496Z,99328.94
2023-10-09T05:49:21.178Z,99333.44
2023-10-09T05:52:53.796Z,99319.16
2023-10-09T05:56:15.012Z,99314.63
2023-10-09T05:59:53.109Z,99302.28
2023-10-09T06:03:14.070Z,99209.00
2023-10-09T06:06:34.216Z,99275.97
2023-10-09T06:09:51.284Z,99291.81
2023-10-09T06:13:05.017Z,99300.81
2023-10-09T06:16:20.971Z,99276.75
2023-10-09T06:19:27.840Z,99288.34
2023-10-09T06:22:49.054Z,99227.03
2023-10-09T06:26:02.038Z,99231.03
2023-10-09T06:29:17.610Z,99259.09
2023-10-09T06:32:20.675Z,99256.22
2023-10-09T06:35:23.597Z,99263.56
2023-10-09T06:38:41.450Z,99266.72
2023-10-09T06:41:46.510Z,99268.72
2023-10-09T06:44:55.561Z,99260.91
2023-10-09T06:48:08.790Z,99245.72
2023-10-09T06:51:42.183Z,99243.94
2023-10-09T06:54:51.496Z,99231.37
2023-10-09T06:57:55.708Z,99244.19
2023-10-09T07:01:16.876Z,99246.59
2023-10-09T07:04:20.860Z,99242.00
2023-10-09T07:07:25.892Z,99233.81
2023-10-09T07:10:33.974Z,99238.31
2023-10-09T07:13:38.327Z,99257.94
2023-10-09T07:16:58.260Z,99260.38
2023-10-09T07:20:36.653Z,99237.38
2023-10-09T07:23:49.251Z,99245.34
2023-10-09T07:26:54.614Z,99229.25
2023-10-09T07:29:57.682Z,99208.59
2023-10-09T07:33:12.603Z,99191.16
2023-10-09T07:36:15.986Z,99180.56
2023-10-09T07:39:18.758Z,99172.91
2023-10-09T07:42:34.615Z,99171.22
2023-10-09T07:45:37.592Z,99167.84
2023-10-09T07:48:49.844Z,99169.50
2023-10-09T07:51:53.778Z,99166.22
2023-10-09T07:55:03.673Z,99173.69
2023-10-09T07:58:12.005Z,99173.50
2023-10-09T08:01:23.660Z,99181.50
2023-10-09T08:04:41.166Z,99183.44
2023-10-09T08:08:05.232Z,99185.53
2023-10-09T08:11:29.845Z,99174.47
2023-10-09T08:14:34.945Z,99151.19
2023-10-09T08:17:38.788Z,99142.88
2023-10-09T08:20:59.526Z,99137.16
2023-10-09T08:24:06.370Z,99122.88
2023-10-09T08:27:29.145Z,99134.13
2023-10-09T08:30:47.955Z,99139.78
2023-10-09T08:37:06.126Z,99135.03
2023-10-09T08:40:10.242Z,99121.72
2023-10-09T08:43:17.626Z,99122.59
2023-10-09T08:46:29.891Z,99126.19
2023-10-09T08:49:35.696Z,99115.47
2023-10-09T08:52:38.937Z,99096.53
2023-10-09T08:55:42.447Z,99122.28
2023-10-09T08:58:45.226Z,99126.97
2023-10-09T09:01:59.519Z,99116.16
2023-10-09T09:05:17.894Z,99086.41
2023-10-09T09:08:27.156Z,99074.94
2023-10-09T09:11:36.996Z,99061.03
2023-10-09T09:14:40.170Z,99079.19
2023-10-09T09:17:43.579Z,99097.12
2023-10-09T09:20:54.775Z,99092.56
2023-10-09T09:24:02.795Z,99083.97
2023-10-09T09:27:19.828Z,99079.47
2023-10-09T09:30:36.689Z,99072.41
2023-10-09T09:33:43.743Z,99068.03
2023-10-09T09:36:59.717Z,99063.72
2023-10-09T09:40:24.295Z,99061.56
2023-10-09T09:43:30.036Z,99066.06
2023-10-09T09:46:38.583Z,99069.13
2023-10-09T09:49:44.563Z,99066.59
2023-10-09T09:52:48.203Z,99059.62
2023-10-09T09:55:59.301Z,99059.12
2023-10-09T09:59:05.574Z,99067.16
2023-10-09T10:02:12.002Z,99062.00
2023-10-09T10:05:17.307Z,99058.44
2023-10-09T10:08:21.501Z,99071.19
2023-10-09T10:11:47.291Z,99048.16
2023-10-09T10:15:00.799Z,99058.38
2023-10-09T10:18:08.479Z,99032.06
2023-10-09T10:21:17.198Z,98974.50
2023-10-09T10:24:52.838Z,98956.06
2023-10-09T10:28:40.472Z,98913.09
2023-10-09T10:31:57.744Z,98899.91
2023-10-09T10:35:07.878Z,98965.75
2023-10-09T10:38:35.310Z,98944.84
2023-10-09T10:41:55.361Z,98905.75
2023-10-09T10:44:58.225Z,98911.00
2023-10-09T10:48:07.931Z,98904.09
2023-10-09T10:51:12.748Z,98888.47
2023-10-09T10:54:34.846Z,98866.78
2023-10-09T10:57:56.524Z,98891.31
2023-10-09T11:00:59.193Z,98894.03
2023-10-09T11:04:13.748Z,98895.78
2023-10-09T11:07:25.858Z,98908.00
2023-10-09T11:10:30.394Z,98885.69
2023-10-09T11:13:53.598Z,98891.88
2023-10-09T11:17:00.057Z,98907.56
2023-10-09T11:20:24.259Z,98911.22
2023-10-09T11:23:36.220Z,98920.66
2023-10-09T11:26:41.722Z,98911.84
2023-10-09T11:29:53.321Z,98870.72
2023-10-09T11:33:15.436Z,98882.13
2023-10-09T11:36:32.463Z,98919.69
2023-10-09T11:39:36.131Z,98907.62
2023-10-09T11:42:39.721Z,98874.25
2023-10-09T11:45:55.646Z,98837.16
2023-10-09T11:49:21.032Z,98789.69
2023-10-09T11:52:36.634Z,98824.44
2023-10-09T11:55:39.863Z,98845.91
2023-10-09T11:58:42.549Z,98846.34
2023-10-09T12:01:53.420Z,98824.94
2023-10-09T12:04:57.174Z,98811.50
2023-10-09T12:08:02.454Z,98819.34
2023-10-09T12:11:09.488Z,98830.38
2023-10-09T12:14:12.587Z,98823.81
2023-10-09T12:17:15.577Z,98807.75
2023-10-09T12:20:38.564Z,98801.97
2023-10-09T12:23:42.297Z,98785.47
2023-10-09T12:26:47.070Z,98804.47
2023-10-09T12:29:50.889Z,98815.72
2023-10-09T12:32:56.121Z,98813.19
2023-10-09T12:36:02.763Z,98799.28
2023-10-09T12:39:06.906Z,98796.75
2023-10-09T12:42:10.286Z,98803.44
2023-10-09T12:45:14.030Z,98814.75
2023-10-09T12:48:17.120Z,98819.53
2023-10-09T12:51:19.824Z,98823.53
2023-10-09T12:54:28.427Z,98816.34
2023-10-09T12:57:31.327Z,98819.06
2023-10-09T13:00:38.324Z,98783.69
2023-10-09T13:03:41.436Z,98807.81
2023-10-09T13:06:47.796Z,98816.66
2023-10-09T13:10:09.478Z,98801.97
2023-10-09T13:13:12.997Z,98803.00
2023-10-09T13:16:26.062Z,98793.06
2023-10-09T13:19:29.315Z,98798.88
2023-10-09T13:22:31.883Z,98792.16
2023-10-09T13:25:41.008Z,98789.78
2023-10-09T13:28:46.439Z,98790.44
2023-10-09T13:31:52.537Z,98776.47
2023-10-09T13:34:56.755Z,98773.78
2023-10-09T13:38:00.289Z,98760.69
2023-10-09T13:41:03.145Z,98752.72
2023-10-09T13:44:06.168Z,98759.66
2023-10-09T13:47:20.318Z,98777.75
2023-10-09T13:50:31.796Z,98798.19
2023-10-09T13:53:45.968Z,98797.41
2023-10-09T13:56:54.218Z,98761.41
2023-10-09T13:59:57.184Z,98739.09
2023-10-09T14:03:12.582Z,98777.88
2023-10-09T14:06:15.598Z,98763.88
2023-10-09T14:09:33.299Z,98753.94
2023-10-09T14:12:41.361Z,98723.59
2023-10-09T14:15:47.134Z,98731.69
2023-10-09T14:18:50.061Z,98743.31
2023-10-09T14:21:52.759Z,98698.66
2023-10-09T14:25:00.544Z,98672.22
2023-10-09T14:28:08.668Z,98712.63
2023-10-09T14:31:13.788Z,98733.91
2023-10-09T14:34:16.364Z,98725.41
2023-10-09T14:37:20.604Z,98715.91
2023-10-09T14:40:31.115Z,98714.16
2023-10-09T14:43:35.253Z,98738.69
2023-10-09T14:46:38.126Z,98730.66
2023-10-09T14:49:48.174Z,98725.81
2023-10-09T14:52:54.555Z,98717.94
2023-10-09T14:55:58.139Z,98709.84
2023-10-09T14:59:01.249Z,98717.72
2023-10-09T15:02:06.555Z,98705.06
2023-10-09T15:05:13.277Z,98698.97
2023-10-09T15:08:16.477Z,98697.94
2023-10-09T15:11:26.476Z,98703.44
2023-10-09T15:14:29.596Z,98709.09
2023-10-09T15:17:32.340Z,98714.59
2023-10-09T15:20:36.429Z,98719.25
2023-10-09T15:23:39.173Z,98702.78
2023-10-09T15:26:58.281Z,98734.59
2023-10-09T15:30:00.970Z,98727.53
2023-10-09T15:33:06.267Z,98716.94
2023-10-09T15:36:14.157Z,98699.34
2023-10-09T15:39:20.721Z,98689.72
2023-10-09T15:42:23.682Z,98688.09
2023-10-09T15:45:29.444Z,98678.12
2023-10-09T15:48:33.781Z,98692.47
2023-10-09T15:51:36.669Z,98694.88
2023-10-09T15:54:41.446Z,98677.09
2023-10-09T15:57:44.272Z,98676.31
2023-10-09T16:00:46.866Z,98671.28
2023-10-09T16:03:51.113Z,98680.28
2023-10-09T16:06:56.665Z,98676.94
2023-10-09T16:10:00.011Z,98673.59
2023-10-09T16:13:02.769Z,98683.66
2023-10-09T16:16:09.234Z,98687.78
2023-10-09T16:19:12.289Z,98678.19
2023-10-09T16:22:15.111Z,98686.62
2023-10-09T16:25:21.781Z,98680.28
2023-10-09T16:28:26.047Z,98666.87
2023-10-09T16:31:28.828Z,98675.66
2023-10-09T16:34:33.616Z,98672.03
2023-10-09T16:37:36.261Z,98669.81
2023-10-09T16:40:40.505Z,98672.81
2023-10-09T16:43:43.755Z,98677.44
2023-10-09T16:46:47.531Z,98679.00
2023-10-09T16:49:52.827Z,98668.25
2023-10-09T16:52:56.211Z,98684.59
2023-10-09T16:56:02.121Z,98688.28
2023-10-09T16:59:09.174Z,98712.75
2023-10-09T17:02:14.549Z,98704.13
2023-10-09T17:05:29.204Z,98708.75
2023-10-09T17:08:35.901Z,98714.31
2023-10-09T17:11:42.693Z,98705.37
2023-10-09T17:14:46.062Z,98709.94
2023-10-09T17:17:51.994Z,98709.09
2023-10-09T17:20:55.969Z,98714.31
2023-10-09T17:23:59.649Z,98713.34
2023-10-09T17:27:02.923Z,98706.22
2023-10-09T17:30:06.823Z,98702.66
2023-10-09T17:33:09.746Z,98696.34
2023-10-09T17:36:18.959Z,98706.03
2023-10-09T17:39:27.314Z,98715.75
2023-10-09T17:42:30.910Z,98715.22
2023-10-09T17:45:42.375Z,98713.22
2023-10-09T17:48:46.375Z,98712.50
2023-10-09T17:51:49.434Z,98682.56
2023-10-09T17:54:53.642Z,98707.53
2023-10-09T17:57:57.266Z,98704.94
2023-10-09T18:01:05.434Z,98704.00
2023-10-09T18:04:08.813Z,98697.87
2023-10-09T18:07:14.832Z,98692.25
2023-10-09T18:10:17.868Z,98687.88
2023-10-09T18:13:20.639Z,98671.47
2023-10-09T18:16:24.201Z,98689.19
2023-10-09T18:19:30.175Z,98701.72
2023-10-09T18:22:33.268Z,98703.72
2023-10-09T18:25:41.418Z,98699.41
2023-10-09T18:28:49.572Z,98693.38
2023-10-09T18:31:52.576Z,98680.91
2023-10-09T18:34:55.998Z,98685.16
2023-10-09T18:38:01.699Z,98681.31
2023-10-09T18:41:08.640Z,98689.00
2023-10-09T18:44:11.668Z,98687.28
2023-10-09T18:47:20.601Z,98660.25
2023-10-09T18:50:25.869Z,98682.28
2023-10-09T18:53:32.854Z,98684.16
2023-10-09T18:56:35.860Z,98678.16
2023-10-09T18:59:38.721Z,98694.16
2023-10-09T19:02:41.440Z,98688.19
2023-10-09T19:05:45.766Z,98699.00
2023-10-09T19:08:50.356Z,98698.47
2023-10-09T19:11:58.092Z,98705.97
2023-10-09T19:15:00.984Z,98713.66
2023-10-09T19:18:04.926Z,98707.75
2023-10-09T19:21:12.297Z,98714.84
2023-10-09T19:24:15.262Z,98714.31
2023-10-09T19:27:19.552Z,98706.13
2023-10-09T19:30:22.989Z,98714.47
2023-10-09T19:33:26.725Z,98710.12
2023-10-09T19:36:30.419Z,98705.22
2023-10-09T19:39:33.424Z,98709.94
2023-10-09T19:42:40.461Z,98710.41
2023-10-09T19:45:43.232Z,98705.94
2023-10-09T19:48:47.457Z,98709.34
2023-10-09T19:51:52.590Z,98703.38
2023-10-09T19:54:57.514Z,98713.78
2023-10-09T19:58:01.640Z,98711.94
2023-10-09T20:01:12.357Z,98713.91
2023-10-09T20:04:16.830Z,98720.37
2023-10-09T20:07:19.492Z,98732.75
2023-10-09T20:10:22.485Z,98725.94
2023-10-09T20:13:25.174Z,98723.22
2023-10-09T20:16:28.371Z,98719.81
2023-10-09T20:19:32.787Z,98715.28
2023-10-09T20:22:36.487Z,98717.03
2023-10-09T20:25:39.093Z,98731.28
2023-10-09T20:28:42.126Z,98727.97
2023-10-09T20:31:48.408Z,98733.97
2023-10-09T20:34:58.055Z,98729.63
2023-10-09T20:38:03.067Z,98734.22
2023-10-09T20:41:09.084Z,98738.69
2023-10-09T20:44:13.818Z,98720.47
2023-10-09T20:47:16.950Z,98754.00
2023-10-09T20:50:19.547Z,98754.94
2023-10-09T20:53:22.424Z,98759.44
2023-10-09T20:56:26.384Z,98752.38
2023-10-09T20:59:29.380Z,98762.25
2023-10-09T21:02:32.223Z,98746.09
2023-10-09T21:05:36.278Z,98752.41
2023-10-09T21:08:39.353Z,98751.37
2023-10-09T21:11:42.585Z,98756.78
2023-10-09T21:14:45.147Z,98753.06
2023-10-09T21:17:53.454Z,98760.41
2023-10-09T21:20:56.372Z,98758.59
2023-10-09T21:23:59.617Z,98764.59
2023-10-09T21:27:02.250Z,98766.69
2023-10-09T21:30:07.330Z,98769.25
2023-10-09T21:33:10.050Z,98744.31
2023-10-09T21:36:14.024Z,98766.09
2023-10-09T21:39:18.946Z,98763.41
2023-10-09T21:42:21.827Z,98770.66
2023-10-09T21:45:25.554Z,98770.28
2023-10-09T21:48:28.326Z,98766.75
2023-10-09T21:51:30.942Z,98764.00
2023-10-09T21:54:33.824Z,98773.91
2023-10-09T21:57:36.782Z,98779.25
2023-10-09T22:00:39.583Z,98768.41
2023-10-09T22:03:42.805Z,98759.59
2023-10-09T22:06:45.546Z,98758.06
2023-10-09T22:09:48.808Z,98765.13
2023-10-09T22:12:51.424Z,98761.63
2023-10-09T22:15:55.060Z,98755.38
2023-10-09T22:19:13.518Z,98753.59
2023-10-09T22:22:23.540Z,98755.28
2023-10-09T22:25:26.883Z,98740.06
2023-10-09T22:28:35.567Z,98752.75
2023-10-09T22:31:40.006Z,98748.22
2023-10-09T22:34:43.284Z,98739.56
2023-10-09T22:37:46.069Z,98727.06
2023-10-09T22:40:53.026Z,98734.78
2023-10-09T22:43:57.021Z,98747.19
2023-10-09T22:47:09.319Z,98757.06
2023-10-09T22:50:22.203Z,98720.03
2023-10-09T22:53:39.013Z,98746.31
2023-10-09T22:56:44.745Z,98739.03
2023-10-09T22:59:51.739Z,98734.41
2023-10-09T23:02:58.172Z,98738.75
2023-10-09T23:06:10.077Z,98734.41
2023-10-09T23:09:16.959Z,98744.28
2023-10-09T23:12:26.388Z,98739.72
2023-10-09T23:15:34.034Z,98751.34
2023-10-09T23:19:06.549Z,98748.78
2023-10-09T23:22:21.060Z,98744.34
2023-10-09T23:25:35.990Z,98731.06
2023-10-09T23:28:39.539Z,98728.37
2023-10-09T23:31:57.862Z,98741.66
2023-10-09T23:35:00.625Z,98746.13
2023-10-09T23:38:32.995Z,98761.25
2023-10-09T23:41:35.981Z,98773.53
2023-10-09T23:44:38.946Z,98780.09
2023-10-09T23:47:42.511Z,98775.56
2023-10-09T23:50:45.738Z,98774.13
2023-10-09T23:54:02.326Z,98760.78
2023-10-09T23:57:06.927Z,98762.47
